Maverick, South Dakota
Current Conditions -  °F | °C
As of 12:53 PM on Wednesday 28 Jan 2015 (Local Time) from KCUT Reporting Station
Overcast Overcast  
Wind Chill: 39°   Ceiling: 10000
Heat Index: 45°   Visibility: 10mi
Dew Point: 24°   Wind: 12mph
Humidity: 44%   Direction: 320°NW
Pressure: 29.97"   Gusts: 28mph
Location:  43.346°N, 103.483°W
Report Text: KCUT 281953Z AUTO 32010G24KT 290V350 10SM OVC100 07/M04 A2997 RMK AO2 SLP130 T00721044
Loading
Personal Weather Stations






























Interactive Weather Map New forecast layout! Learn more

10-Day Weather Forecast

Advertisements
Track Severe Weather on mobile